Sainte-Cecile-De-Masham, Canada
Current Conditions -  °F | °C
As of 9:00 PM on Friday 24 Oct 2014 (Local Time) from CYND Reporting Station
Few Clouds Few Clouds  
Wind Chill: 42°   Ceiling: Unl
Heat Index: 45°   Visibility: 15mi
Dew Point: 41°   Wind: 5mph
Humidity: 87%   Direction: 250°WSW
Pressure: 29.83"   Gusts: NA
Location:  45.65°N, 76.03°W
Report Text: CYND 250100Z 25004KT 15SM FEW100 07/05 A2983 RMK AC1 LAST OBS/NEXT 251100 UTC SLP101
Loading
Personal Weather Stations






























Interactive Weather Map
Tropical Storm Tracking
New forecast layout! Learn more

10-Day Weather Forecast

Advertisements
Track Severe Weather on mobile